Latest Weather Observations for McArthur River Mine

IDD60801

Issued at 11:35 am CST Thursday 24 April 2014 (issued every 30 minutes, with the page automatically refreshed every 10 minutes)

About weather observations | Map of weather stations | Latest weather observations for NT | Other Formats
Station Details ID: 014704 Name: MCARTHUR RIVER MINE AIRPORT Lat: -16.44 Lon: 136.08 Height: 40.0 m
Data from the previous 72 hours. | See also: Recent months at McArthur River Mine
Date/Time
CST
Temp
°C
App
Temp
°C
Dew
Point
Rel
Hum
%
Delta-T
°C
Wind Press
QNH
hPa
Press
MSL
hPa
Rain
since 9 am
mm
Dir
 
Spd
km/h
Gust
km/h
Spd
kts
Gust
kts
24/11:30am 30.7 31.6 21.5 58 6.2 ESE 19 26 10 14 1010.0 - 0.0
24/11:00am 30.2 31.6 21.8 60 5.7 ESE 17 28 9 15 1010.6 - 0.0
24/10:30am 29.5 30.8 21.7 63 5.3 ESE 17 24 9 13 1010.8 - 0.0
24/10:00am 28.6 30.2 21.4 65 4.8 ESE 15 26 8 14 1010.8 - 0.0
24/09:30am 27.8 29.5 21.6 69 4.1 SE 15 20 8 11 1010.7 - 0.0
24/09:00am 27.2 29.2 22.2 74 3.4 ESE 15 22 8 12 1010.5 1010.2 0.0
24/08:30am 25.8 27.4 22.1 80 2.5 SE 17 28 9 15 1010.2 - 0.0
24/08:00am 24.7 27.6 22.4 87 1.5 SSE 11 13 6 7 1009.9 - 0.0
24/07:30am 24.0 27.2 22.4 91 1.1 S 9 13 5 7 1009.9 - 0.0
24/07:00am 22.7 27.6 22.4 98 0.2 CALM 0 0 0 0 1009.7 - 0.0
24/06:30am 22.9 26.4 22.1 95 0.5 SSW 7 9 4 5 1009.1 - 0.0
24/06:00am 23.1 26.7 22.1 94 0.7 S 6 7 3 4 1008.9 1008.6 0.0
24/05:30am 23.4 26.9 22.2 93 0.8 S 7 9 4 5 1008.6 - 0.0
24/05:00am 23.2 26.9 22.2 94 0.7 S 6 7 3 4 1008.3 - 0.0
24/04:30am 23.3 26.8 22.1 93 0.8 S 7 9 4 5 1008.0 - 0.0
24/04:00am 23.5 26.5 21.9 91 1.1 S 9 11 5 6 1008.2 - 0.0
24/03:30am 23.6 27.0 22.0 91 1.1 S 7 9 4 5 1008.4 - 0.0
24/03:00am 23.7 27.1 22.0 90 1.1 S 7 11 4 6 1008.7 1008.4 0.0
24/02:30am 23.8 27.3 22.1 90 1.1 S 7 9 4 5 1009.0 - 0.0
24/02:00am 24.2 27.7 22.1 88 1.4 S 7 9 4 5 1009.3 - 0.0
24/01:30am 24.4 27.9 21.9 86 1.7 SSE 6 7 3 4 1009.5 - 0.0
24/01:00am 24.4 27.6 21.7 85 1.8 E 7 9 4 5 1009.8 - 0.0
24/12:30am 24.9 27.4 21.8 83 2.1 ENE 11 17 6 9 1010.1 - 0.0
24/12:00am 25.0 27.9 21.7 82 2.2 E 9 17 5 9 1010.5 1010.2 0.0
 
Date/Time
CST
Temp
°C
App
Temp
°C
Dew
Point
Rel
Hum
%
Delta-T
°C
Wind Press
QNH
hPa
Press
MSL
hPa
Rain
since 9 am
mm
Dir
 
Spd
km/h
Gust
km/h
Spd
kts
Gust
kts
23/11:30pm 25.4 27.5 21.7 80 2.5 E 13 20 7 11 1010.7 - 0.0
23/11:00pm 25.6 27.7 21.7 79 2.6 E 13 20 7 11 1010.9 - 0.0
23/10:30pm 25.6 27.7 21.7 79 2.6 ESE 13 19 7 10 1011.0 - 0.0
23/10:00pm 25.9 26.9 21.8 78 2.7 E 19 32 10 17 1011.1 - 0.0
23/09:30pm 26.1 27.8 21.7 77 2.9 E 15 22 8 12 1011.2 - 0.0
23/09:00pm 26.2 28.0 21.8 77 2.9 E 15 24 8 13 1011.0 1010.7 0.0
23/08:30pm 26.3 28.4 21.7 76 3.1 E 13 20 7 11 1010.7 - 0.0
23/08:00pm 26.9 28.1 21.4 72 3.7 E 17 24 9 13 1010.4 - 0.0
23/07:30pm 27.2 27.9 21.2 69 4.0 ENE 19 26 10 14 1009.9 - 0.0
23/07:00pm 27.4 28.5 21.2 69 4.1 E 17 26 9 14 1009.6 - 0.0
23/06:30pm 27.9 28.4 21.2 67 4.5 E 20 26 11 14 1009.6 - 0.0
23/06:00pm 28.5 28.9 21.0 64 5.0 E 20 30 11 16 1009.4 1009.1 0.0
23/05:30pm 29.3 29.6 20.7 59 5.7 E 20 33 11 18 1009.2 - 0.0
23/05:00pm 30.0 30.1 20.0 55 6.6 SE 19 32 10 17 1008.9 - 0.0
23/04:30pm 30.5 30.6 20.4 54 6.7 ESE 20 33 11 18 1008.8 - 0.0
23/04:00pm 30.4 30.9 20.9 57 6.3 ESE 19 28 10 15 1008.5 - 0.0
23/03:30pm 31.1 32.1 21.0 55 6.8 ESE 17 26 9 14 1008.5 - 0.0
23/03:00pm 31.1 32.2 21.9 58 6.2 E 19 26 10 14 1008.6 1008.3 0.0
23/02:30pm 30.4 31.2 21.8 60 5.8 ESE 20 32 11 17 1008.9 - 0.0
23/02:00pm 30.8 31.9 22.4 61 5.7 ESE 20 33 11 18 1009.3 - 0.0
23/01:30pm 30.9 31.8 21.9 58 6.1 SE 20 28 11 15 1009.4 - 0.0
23/01:00pm 30.9 32.3 21.9 58 6.1 ESE 17 24 9 13 1009.6 - 0.0
23/12:30pm 30.9 33.3 23.0 62 5.4 SSE 15 26 8 14 1010.2 - 0.0
23/12:00pm 30.2 32.6 22.9 65 5.0 ESE 15 26 8 14 1010.6 1010.3 0.0
23/11:30am 29.5 31.4 22.7 67 4.6 ESE 17 26 9 14 1011.4 - 0.0
23/11:00am 29.2 31.7 23.2 70 4.1 ESE 15 24 8 13 1012.0 - 0.0
23/10:30am 28.5 30.3 23.2 73 3.6 ESE 19 26 10 14 1012.4 - 0.0
23/10:00am 28.4 30.2 23.3 74 3.5 ESE 19 28 10 15 1012.4 - 0.0
23/09:30am 28.1 30.5 23.7 77 3.0 E 17 28 9 15 1012.3 - 0.0
23/09:00am 27.2 30.8 23.0 78 2.9 SE 9 11 5 6 1012.0 1011.7 0.0
23/08:30am 25.8 30.7 23.7 88 1.4 S 4 7 2 4 1011.8 - 0.0
23/08:00am 24.3 28.8 23.6 96 0.5 SW 6 7 3 4 1011.8 - 0.0
23/07:30am 23.2 28.6 23.2 100 0.0 CALM 0 6 0 3 1011.6 - 0.0
23/07:00am 22.6 27.3 22.6 100 0.0 WNW 2 6 1 3 1011.2 - 0.0
23/06:30am 22.5 27.5 22.5 100 0.0 CALM 0 0 0 0 1010.8 - 0.0
23/06:00am 22.8 27.6 22.8 100 0.0 WSW 2 7 1 4 1010.5 1010.2 0.0
23/05:30am 23.2 27.4 23.2 100 0.0 SSW 6 7 3 4 1010.0 - 0.0
23/05:00am 23.2 27.3 23.2 100 0.0 SW 7 9 4 5 1009.8 - 0.0
23/04:30am 23.1 27.3 23.1 100 0.0 WSW 6 9 3 5 1009.6 - 0.0
23/04:00am 23.4 27.6 23.2 99 0.1 SW 6 7 3 4 1009.3 - 0.0
23/03:30am 23.6 27.8 23.1 97 0.3 SW 6 7 3 4 1009.5 - 0.0
23/03:00am 24.1 29.4 23.1 94 0.7 CALM 0 4 0 2 1009.6 1009.3 0.0
23/02:30am 24.4 29.7 23.0 92 0.9 CALM 0 0 0 0 1010.2 - 0.0
23/02:00am 25.0 28.9 22.9 88 1.4 ENE 7 9 4 5 1010.5 - 0.0
23/01:30am 25.2 29.0 22.7 86 1.7 ENE 7 11 4 6 1011.0 - 0.0
23/01:00am 25.0 30.3 23.1 89 1.3 CALM 0 0 0 0 1011.1 - 0.0
23/12:30am 24.8 30.1 23.0 90 1.2 CALM 0 0 0 0 1011.0 - 0.0
23/12:00am 25.2 29.8 22.5 85 1.8 ESE 2 7 1 4 1011.1 1010.8 0.0
 
Date/Time
CST
Temp
°C
App
Temp
°C
Dew
Point
Rel
Hum
%
Delta-T
°C
Wind Press
QNH
hPa
Press
MSL
hPa
Rain
since 9 am
mm
Dir
 
Spd
km/h
Gust
km/h
Spd
kts
Gust
kts
22/11:30pm 26.1 30.0 22.6 81 2.4 SE 6 11 3 6 1011.0 - 0.0
22/11:00pm 26.3 29.8 22.8 81 2.4 ESE 9 15 5 8 1010.9 - 0.0
22/10:30pm 26.3 29.8 22.8 81 2.4 E 9 13 5 7 1011.0 - 0.0
22/10:00pm 26.7 29.4 22.8 79 2.6 ENE 13 19 7 10 1011.2 - 0.0
22/09:30pm 26.9 30.3 23.4 81 2.4 ENE 11 17 6 9 1011.3 - 0.0
22/09:00pm 27.1 30.8 23.3 80 2.6 NE 9 13 5 7 1011.4 1011.1 0.0
22/08:30pm 27.3 31.4 22.9 77 3.0 NNE 6 11 3 6 1011.1 - 0.0
22/08:00pm 27.8 30.6 23.0 75 3.3 ENE 13 20 7 11 1011.1 - 0.0
22/07:30pm 28.0 29.6 22.9 74 3.5 NE 19 26 10 14 1010.9 - 0.0
22/07:00pm 28.5 29.3 22.5 70 4.1 ENE 22 32 12 17 1010.8 - 0.0
22/06:46pm 28.9 29.4 22.6 69 4.3 ENE 24 41 13 22 1010.7 - 0.0
22/06:31pm 29.5 30.7 23.2 69 4.3 NE 22 39 12 21 1010.5 - 0.0
22/06:30pm 29.5 30.3 23.2 69 4.3 NE 24 39 13 21 1010.5 - 0.0
22/06:00pm 32.1 31.4 18.7 45 8.7 ENE 20 30 11 16 1009.9 1009.6 0.0
22/05:30pm 33.3 32.9 15.3 34 11.2 E 11 19 6 10 1009.5 - 0.0
22/05:00pm 34.2 33.2 14.7 31 12.1 SE 13 20 7 11 1009.3 - 0.0
22/04:30pm 34.8 33.6 14.1 28 12.7 SE 13 20 7 11 1009.2 - 0.0
22/04:00pm 35.3 33.9 14.6 29 12.8 ESE 15 20 8 11 1009.2 - 0.0
22/03:30pm 34.6 32.4 13.4 28 12.9 SE 17 22 9 12 1009.1 - 0.0
22/03:00pm 35.2 33.2 13.9 27 13.1 SSE 17 26 9 14 1009.3 1009.0 0.0
22/02:30pm 35.5 34.2 14.7 28 12.9 ESE 15 24 8 13 1009.6 - 0.0
22/02:00pm 35.0 34.3 15.3 30 12.3 E 13 22 7 12 1009.9 - 0.0
22/01:30pm 35.0 33.9 15.3 30 12.3 SSE 15 24 8 13 1010.1 - 0.0
22/01:00pm 34.4 33.1 14.8 30 12.2 ENE 15 28 8 15 1010.8 - 0.0
22/12:30pm 33.8 31.4 13.8 30 12.2 E 19 30 10 16 1011.4 - 0.0
22/12:00pm 34.2 32.1 13.6 29 12.6 E 17 28 9 15 1012.0 1011.7 0.0
22/11:30am 33.9 31.9 12.8 28 12.7 E 15 26 8 14 1012.4 - 0.0
22/11:00am 33.9 31.0 12.3 27 12.9 E 19 28 10 15 1012.9 - 0.0
22/10:30am 33.3 31.6 12.3 28 12.5 E 13 28 7 15 1013.1 - 0.0
22/10:00am 31.6 31.1 16.0 39 9.8 E 13 19 7 10 1013.2 - 0.0
22/09:30am 29.1 30.3 18.2 51 7.0 SSE 9 15 5 8 1013.3 - 0.0
22/09:00am 27.6 29.8 20.4 65 4.7 S 9 13 5 7 1013.2 1012.9 0.0
22/08:30am 25.5 28.4 20.7 75 3.2 SW 6 9 3 5 1013.2 - 0.0
22/08:00am 23.4 27.0 22.0 92 0.9 W 6 9 3 5 1012.9 - 0.0
22/07:30am 21.6 24.4 21.6 100 0.0 WSW 9 9 5 5 1012.9 - 0.0
22/07:00am 20.3 23.0 20.3 100 0.0 W 6 7 3 4 1012.7 - 0.0
22/06:30am 20.5 23.7 20.5 100 0.0 WSW 4 6 2 3 1012.2 - 0.0
22/06:00am 20.7 24.8 20.7 100 0.0 CALM 0 0 0 0 1012.0 1011.7 0.0
22/05:30am 20.8 24.9 20.8 100 0.0 CALM 0 0 0 0 1011.9 - 0.0
22/05:00am 21.3 25.7 21.3 100 0.0 CALM 0 0 0 0 1011.7 - 0.0
22/04:30am 21.3 25.7 21.3 100 0.0 CALM 0 0 0 0 1011.6 - 0.0
22/04:00am 21.5 26.0 21.5 100 0.0 CALM 0 0 0 0 1011.5 - 0.0
22/03:30am 21.5 26.0 21.5 100 0.0 CALM 0 0 0 0 1011.6 - 0.0
22/03:00am 21.9 26.4 21.6 98 0.2 CALM 0 0 0 0 1011.6 1011.3 0.0
22/02:30am 22.0 26.5 21.5 97 0.3 CALM 0 0 0 0 1011.9 - 0.0
22/02:01am 22.3 26.7 21.3 94 0.7 CALM 0 0 0 0 1012.0 - 0.0
22/02:00am 22.4 26.8 21.4 94 0.7 CALM 0 4 0 2 1012.0 - 0.0
22/01:50am 22.4 26.1 21.4 94 0.7 WSW 4 6 2 3 1012.1 - 0.0
22/01:30am 22.7 25.9 21.3 92 0.9 WSW 6 7 3 4 1012.2 - 0.0
22/01:00am 23.0 26.1 21.1 89 1.2 WSW 6 7 3 4 1012.5 - 0.0
22/12:30am 23.6 27.7 20.7 84 1.9 CALM 0 0 0 0 1012.6 - 0.0
22/12:00am 24.3 27.1 20.4 79 2.5 SW 6 6 3 3 1012.9 1012.6 0.0
 
Date/Time
CST
Temp
°C
App
Temp
°C
Dew
Point
Rel
Hum
%
Delta-T
°C
Wind Press
QNH
hPa
Press
MSL
hPa
Rain
since 9 am
mm
Dir
 
Spd
km/h
Gust
km/h
Spd
kts
Gust
kts
21/11:30pm 24.9 28.7 20.2 75 3.1 CALM 0 0 0 0 1012.9 - 0.0
21/11:00pm 25.8 29.5 19.9 70 3.8 CALM 0 0 0 0 1013.0 - 0.0
21/10:30pm 26.4 29.7 20.0 68 4.2 NE 2 6 1 3 1013.0 - 0.0
21/10:00pm 27.2 28.7 19.8 64 4.8 NE 11 17 6 9 1013.1 - 0.0
21/09:30pm 27.6 28.8 19.9 63 5.0 NE 13 22 7 12 1013.3 - 0.0
21/09:00pm 28.0 29.9 19.8 61 5.4 NE 9 17 5 9 1013.2 1012.9 0.0
21/08:30pm 28.4 29.5 19.6 59 5.7 NE 13 20 7 11 1013.0 - 0.0
21/08:00pm 28.6 29.9 19.2 56 6.1 NNE 11 19 6 10 1012.5 - 0.0
21/07:30pm 29.3 29.3 19.0 53 6.7 NNE 17 26 9 14 1012.2 - 0.0
21/07:00pm 29.6 30.9 20.2 57 6.2 NE 13 24 7 13 1011.8 - 0.0
21/06:30pm 30.0 31.3 20.8 57 6.1 NE 15 22 8 12 1011.5 - 0.0
21/06:00pm 30.7 31.7 20.3 53 6.9 NE 15 24 8 13 1011.1 1010.8 0.0
21/05:30pm 31.3 31.0 20.3 52 7.3 NE 22 30 12 16 1010.7 - 0.0
21/05:00pm 32.1 33.2 19.7 48 8.2 NNE 13 17 7 9 1010.2 - 0.0
21/04:30pm 32.8 33.5 17.0 38 10.1 NNE 9 15 5 8 1009.9 - 0.0
21/04:00pm 32.8 33.7 16.6 38 10.3 ENE 7 11 4 6 1009.9 - 0.0
21/03:30pm 34.5 34.2 15.4 32 12.0 ENE 11 22 6 12 1009.9 - 0.0
21/03:00pm 34.7 34.8 15.6 32 12.0 ENE 9 15 5 8 1010.1 1009.8 0.0
21/02:30pm 34.4 33.7 15.3 31 11.9 SE 13 17 7 9 1010.3 - 0.0
21/02:00pm 34.7 34.5 15.6 32 12.0 ESE 11 19 6 10 1010.6 - 0.0
21/01:30pm 34.1 33.3 16.0 34 11.4 E 15 20 8 11 1010.9 - 0.0
21/01:00pm 34.0 34.1 16.4 35 11.2 E 11 20 6 11 1011.2 - 0.0
21/12:30pm 33.6 32.9 16.5 36 10.8 E 15 28 8 15 1011.6 - 0.0
21/12:00pm 33.2 32.7 17.0 38 10.3 E 15 22 8 12 1012.1 1011.8 0.0

Other Formats:

Comma delimited format used in spreadsheet applications
http://www.bom.gov.au/fwo/IDD60801/IDD60801.94239.axf

JavaScript Object Notation format (JSON) in row-major order
http://www.bom.gov.au/fwo/IDD60801/IDD60801.94239.json